sensor_id;sensor_type;location;lat;lon;timestamp;pressure;altitude;pressure_sealevel;temperature;humidity
19208;BME280;9737;59.466;18.036;2022-10-28T00:00:51;99377.91;;;11.68;80.31
19208;BME280;9737;59.466;18.036;2022-10-28T00:03:21;99323.19;;;11.46;80.38
19208;BME280;9737;59.466;18.036;2022-10-28T00:05:49;99365.13;;;11.71;80.44
19208;BME280;9737;59.466;18.036;2022-10-28T00:08:20;99322.88;;;11.59;80.41
19208;BME280;9737;59.466;18.036;2022-10-28T00:10:48;99298.53;;;11.44;80.41
19208;BME280;9737;59.466;18.036;2022-10-28T00:13:16;99351.97;;;11.70;80.46
19208;BME280;9737;59.466;18.036;2022-10-28T00:15:44;99373.28;;;11.70;80.38
19208;BME280;9737;59.466;18.036;2022-10-28T00:18:15;99341.75;;;11.65;80.49
19208;BME280;9737;59.466;18.036;2022-10-28T00:20:44;99296.25;;;11.49;80.57
19208;BME280;9737;59.466;18.036;2022-10-28T00:23:13;99271.91;;;11.44;80.22
19208;BME280;9737;59.466;18.036;2022-10-28T00:25:41;99287.13;;;11.52;80.63
19208;BME280;9737;59.466;18.036;2022-10-28T00:28:11;99266.03;;;11.40;80.32
19208;BME280;9737;59.466;18.036;2022-10-28T00:30:39;99271.34;;;11.40;80.30
19208;BME280;9737;59.466;18.036;2022-10-28T00:33:07;99283.69;;;11.41;80.43
19208;BME280;9737;59.466;18.036;2022-10-28T00:35:36;99261.09;;;11.45;80.18
19208;BME280;9737;59.466;18.036;2022-10-28T00:38:05;99246.59;;;11.30;80.16
19208;BME280;9737;59.466;18.036;2022-10-28T00:40:33;99262.09;;;11.44;80.51
19208;BME280;9737;59.466;18.036;2022-10-28T00:43:04;99310.53;;;11.58;80.46
19208;BME280;9737;59.466;18.036;2022-10-28T00:45:33;99311.94;;;11.52;80.65
19208;BME280;9737;59.466;18.036;2022-10-28T00:51:51;99339.94;;;11.66;80.91
19208;BME280;9737;59.466;18.036;2022-10-28T00:54:22;99328.88;;;11.61;80.68
19208;BME280;9737;59.466;18.036;2022-10-28T00:56:56;99339.94;;;11.66;80.74
19208;BME280;9737;59.466;18.036;2022-10-28T00:59:27;99330.72;;;11.60;80.37
19208;BME280;9737;59.466;18.036;2022-10-28T01:01:56;99334.34;;;11.59;80.56
19208;BME280;9737;59.466;18.036;2022-10-28T01:04:24;99367.66;;;11.73;80.64
19208;BME280;9737;59.466;18.036;2022-10-28T01:06:54;99362.31;;;11.73;80.81
19208;BME280;9737;59.466;18.036;2022-10-28T01:10:03;99323.72;;;11.49;80.75
19208;BME280;9737;59.466;18.036;2022-10-28T01:18:07;99374.56;;;11.66;80.62
19208;BME280;9737;59.466;18.036;2022-10-28T01:24:55;99434.81;;;11.86;80.64
19208;BME280;9737;59.466;18.036;2022-10-28T01:27:54;99446.44;;;11.85;80.70
19208;BME280;9737;59.466;18.036;2022-10-28T01:34:25;99503.31;;;12.03;80.77
19208;BME280;9737;59.466;18.036;2022-10-28T01:37:04;99513.69;;;12.06;80.86
19208;BME280;9737;59.466;18.036;2022-10-28T01:39:40;99518.47;;;12.03;80.63
19208;BME280;9737;59.466;18.036;2022-10-28T01:42:16;99524.06;;;12.09;80.89
19208;BME280;9737;59.466;18.036;2022-10-28T01:44:52;99545.38;;;12.09;80.92
19208;BME280;9737;59.466;18.036;2022-10-28T01:47:28;99545.94;;;12.13;80.74
19208;BME280;9737;59.466;18.036;2022-10-28T01:50:05;99550.41;;;12.13;80.74
19208;BME280;9737;59.466;18.036;2022-10-28T01:52:36;99575.53;;;12.20;80.85
19208;BME280;9737;59.466;18.036;2022-10-28T01:59:13;99538.66;;;12.05;80.96
19208;BME280;9737;59.466;18.036;2022-10-28T02:01:43;99550.88;;;11.98;81.07
19208;BME280;9737;59.466;18.036;2022-10-28T02:04:13;99539.81;;;11.93;80.86
19208;BME280;9737;59.466;18.036;2022-10-28T02:06:50;99558.88;;;11.98;81.17
19208;BME280;9737;59.466;18.036;2022-10-28T02:09:29;99609.63;;;12.26;80.96
19208;BME280;9737;59.466;18.036;2022-10-28T02:12:21;99590.56;;;12.21;80.96
19208;BME280;9737;59.466;18.036;2022-10-28T02:15:04;99593.63;;;12.26;81.09
19208;BME280;9737;59.466;18.036;2022-10-28T02:17:47;99614.94;;;12.26;81.26
19208;BME280;9737;59.466;18.036;2022-10-28T02:20:29;99631.22;;;12.32;80.84
19208;BME280;9737;59.466;18.036;2022-10-28T02:23:10;99606.00;;;12.07;80.97
19208;BME280;9737;59.466;18.036;2022-10-28T02:25:45;99653.78;;;12.38;81.05
19208;BME280;9737;59.466;18.036;2022-10-28T02:29:04;99628.44;;;12.15;81.11
19208;BME280;9737;59.466;18.036;2022-10-28T02:31:36;99633.19;;;12.30;80.98
19208;BME280;9737;59.466;18.036;2022-10-28T02:44:07;99516.09;;;12.00;81.01
19208;BME280;9737;59.466;18.036;2022-10-28T02:46:38;99523.66;;;12.04;81.08
19208;BME280;9737;59.466;18.036;2022-10-28T02:49:15;99524.34;;;12.06;81.04
19208;BME280;9737;59.466;18.036;2022-10-28T02:51:45;99487.38;;;11.94;81.15
19208;BME280;9737;59.466;18.036;2022-10-28T02:54:20;99503.63;;;12.00;81.10
19208;BME280;9737;59.466;18.036;2022-10-28T02:56:54;99499.84;;;11.93;81.02
19208;BME280;9737;59.466;18.036;2022-10-28T02:59:27;99526.03;;;12.07;81.21
19208;BME280;9737;59.466;18.036;2022-10-28T03:01:56;99506.47;;;11.89;81.18
19208;BME280;9737;59.466;18.036;2022-10-28T03:04:28;99550.41;;;12.13;81.20
19208;BME280;9737;59.466;18.036;2022-10-28T03:06:56;99548.03;;;12.09;81.20
19208;BME280;9737;59.466;18.036;2022-10-28T03:09:24;99585.22;;;12.21;81.04
19208;BME280;9737;59.466;18.036;2022-10-28T03:15:40;99568.69;;;12.07;81.14
19208;BME280;9737;59.466;18.036;2022-10-28T03:18:09;99594.91;;;12.22;81.33
19208;BME280;9737;59.466;18.036;2022-10-28T03:20:37;99617.22;;;12.21;81.25
19208;BME280;9737;59.466;18.036;2022-10-28T03:23:07;99638.38;;;12.32;81.31
19208;BME280;9737;59.466;18.036;2022-10-28T03:25:35;99629.81;;;12.28;81.23
19208;BME280;9737;59.466;18.036;2022-10-28T03:28:06;99598.41;;;12.13;81.32
19208;BME280;9737;59.466;18.036;2022-10-28T03:30:35;99620.56;;;12.23;81.45
19208;BME280;9737;59.466;18.036;2022-10-28T03:36:07;99644.41;;;12.24;81.18
19208;BME280;9737;59.466;18.036;2022-10-28T03:38:35;99681.72;;;12.34;81.13
19208;BME280;9737;59.466;18.036;2022-10-28T03:41:04;99689.16;;;12.40;81.20
19208;BME280;9737;59.466;18.036;2022-10-28T03:43:33;99707.69;;;12.51;81.27
19208;BME280;9737;59.466;18.036;2022-10-28T03:46:03;99722.28;;;12.47;81.16
19208;BME280;9737;59.466;18.036;2022-10-28T03:48:33;99737.44;;;12.56;81.36
19208;BME280;9737;59.466;18.036;2022-10-28T03:51:01;99748.78;;;12.58;81.24
19208;BME280;9737;59.466;18.036;2022-10-28T03:53:29;99729.00;;;12.51;81.39
19208;BME280;9737;59.466;18.036;2022-10-28T03:55:58;99691.84;;;12.30;81.30
19208;BME280;9737;59.466;18.036;2022-10-28T03:58:29;99744.59;;;12.56;81.40
19208;BME280;9737;59.466;18.036;2022-10-28T04:01:04;99694.06;;;12.35;81.54
19208;BME280;9737;59.466;18.036;2022-10-28T04:03:36;99734.75;;;12.56;81.26
19208;BME280;9737;59.466;18.036;2022-10-28T04:06:05;99668.84;;;12.20;81.31
19208;BME280;9737;59.466;18.036;2022-10-28T04:08:35;99737.72;;;12.53;81.05
19208;BME280;9737;59.466;18.036;2022-10-28T04:11:04;99700.81;;;12.39;81.45
19208;BME280;9737;59.466;18.036;2022-10-28T04:13:58;99692.94;;;12.37;81.30
19208;BME280;9737;59.466;18.036;2022-10-28T04:16:30;99657.03;;;12.32;81.42
19208;BME280;9737;59.466;18.036;2022-10-28T04:19:01;99673.03;;;12.32;81.44
19208;BME280;9737;59.466;18.036;2022-10-28T04:21:30;99660.09;;;12.37;81.46
19208;BME280;9737;59.466;18.036;2022-10-28T04:24:06;99660.09;;;12.37;81.38
19208;BME280;9737;59.466;18.036;2022-10-28T04:26:34;99682.69;;;12.43;81.42
19208;BME280;9737;59.466;18.036;2022-10-28T04:29:02;99661.81;;;12.28;81.47
19208;BME280;9737;59.466;18.036;2022-10-28T04:31:32;99625.34;;;12.09;81.14
19208;BME280;9737;59.466;18.036;2022-10-28T04:37:06;99599.25;;;12.03;81.59
19208;BME280;9737;59.466;18.036;2022-10-28T04:38:14;99581.16;;;12.17;81.41
19208;BME280;9737;59.466;18.036;2022-10-28T04:40:59;99526.34;;;11.95;81.35
19208;BME280;9737;59.466;18.036;2022-10-28T04:43:31;99502.81;;;11.90;81.48
19208;BME280;9737;59.466;18.036;2022-10-28T04:45:59;99550.72;;;12.09;81.52
19208;BME280;9737;59.466;18.036;2022-10-28T04:48:33;99534.50;;;11.93;81.51
19208;BME280;9737;59.466;18.036;2022-10-28T04:51:02;99541.91;;;11.99;81.51
19208;BME280;9737;59.466;18.036;2022-10-28T04:53:30;99521.84;;;12.05;81.58
19208;BME280;9737;59.466;18.036;2022-10-28T04:55:59;99520.16;;;12.04;81.55
19208;BME280;9737;59.466;18.036;2022-10-28T04:58:27;99510.63;;;12.01;81.47
19208;BME280;9737;59.466;18.036;2022-10-28T05:00:58;99532.50;;;12.05;81.66
19208;BME280;9737;59.466;18.036;2022-10-28T05:03:26;99493.41;;;11.96;81.26
19208;BME280;9737;59.466;18.036;2022-10-28T05:05:56;99494.13;;;11.88;81.46
19208;BME280;9737;59.466;18.036;2022-10-28T05:09:03;99468.19;;;11.90;81.78
19208;BME280;9737;59.466;18.036;2022-10-28T05:12:34;99459.06;;;11.83;81.52
19208;BME280;9737;59.466;18.036;2022-10-28T05:15:05;99457.66;;;11.89;81.51
19208;BME280;9737;59.466;18.036;2022-10-28T05:17:33;99402.19;;;11.55;81.64
19208;BME280;9737;59.466;18.036;2022-10-28T05:20:02;99413.63;;;11.75;81.67
19208;BME280;9737;59.466;18.036;2022-10-28T05:22:39;99400.44;;;11.73;81.49
19208;BME280;9737;59.466;18.036;2022-10-28T05:25:14;99359.72;;;11.54;81.76
19208;BME280;9737;59.466;18.036;2022-10-28T05:27:43;99330.91;;;11.39;81.70
19208;BME280;9737;59.466;18.036;2022-10-28T05:30:12;99332.53;;;11.60;81.50
19208;BME280;9737;59.466;18.036;2022-10-28T05:32:40;99316.13;;;11.55;81.39
19208;BME280;9737;59.466;18.036;2022-10-28T05:35:24;99344.03;;;11.60;81.77
19208;BME280;9737;59.466;18.036;2022-10-28T05:37:53;99344.16;;;11.59;81.47
19208;BME280;9737;59.466;18.036;2022-10-28T05:40:24;99340.81;;;11.57;81.57
19208;BME280;9737;59.466;18.036;2022-10-28T05:42:52;99370.75;;;11.68;81.64
19208;BME280;9737;59.466;18.036;2022-10-28T05:45:20;99362.53;;;11.62;81.70
19208;BME280;9737;59.466;18.036;2022-10-28T05:47:48;99373.56;;;11.67;81.79
19208;BME280;9737;59.466;18.036;2022-10-28T05:50:20;99337.16;;;11.58;81.98
19208;BME280;9737;59.466;18.036;2022-10-28T05:52:50;99367.69;;;11.63;81.52
19208;BME280;9737;59.466;18.036;2022-10-28T05:55:22;99379.44;;;11.70;81.85
19208;BME280;9737;59.466;18.036;2022-10-28T05:57:51;99387.28;;;11.72;81.69
19208;BME280;9737;59.466;18.036;2022-10-28T06:00:21;99397.94;;;11.72;82.02
19208;BME280;9737;59.466;18.036;2022-10-28T06:02:49;99402.28;;;11.73;81.86
19208;BME280;9737;59.466;18.036;2022-10-28T06:05:19;99390.44;;;11.58;81.61
19208;BME280;9737;59.466;18.036;2022-10-28T06:07:50;99427.78;;;11.75;81.72
19208;BME280;9737;59.466;18.036;2022-10-28T06:10:18;99352.59;;;11.44;81.75
19208;BME280;9737;59.466;18.036;2022-10-28T06:12:50;99433.53;;;11.81;82.11
19208;BME280;9737;59.466;18.036;2022-10-28T06:15:22;99394.19;;;11.65;81.94
19208;BME280;9737;59.466;18.036;2022-10-28T06:17:50;99385.66;;;11.52;81.75
19208;BME280;9737;59.466;18.036;2022-10-28T06:20:19;99399.66;;;11.63;81.88
19208;BME280;9737;59.466;18.036;2022-10-28T06:22:48;99426.25;;;11.73;81.74
19208;BME280;9737;59.466;18.036;2022-10-28T06:25:18;99445.03;;;11.81;81.75
19208;BME280;9737;59.466;18.036;2022-10-28T06:27:54;99454.28;;;11.77;81.96
19208;BME280;9737;59.466;18.036;2022-10-28T06:30:27;99412.13;;;11.63;82.00
19208;BME280;9737;59.466;18.036;2022-10-28T06:32:56;99477.00;;;11.91;81.76
19208;BME280;9737;59.466;18.036;2022-10-28T06:35:29;99450.91;;;11.75;82.17
19208;BME280;9737;59.466;18.036;2022-10-28T06:38:04;99499.56;;;11.96;82.06
19208;BME280;9737;59.466;18.036;2022-10-28T06:40:38;99484.00;;;11.92;82.33
19208;BME280;9737;59.466;18.036;2022-10-28T06:43:08;99469.41;;;11.76;82.11
19208;BME280;9737;59.466;18.036;2022-10-28T06:45:41;99493.53;;;11.94;82.09
19208;BME280;9737;59.466;18.036;2022-10-28T06:48:15;99481.63;;;11.89;82.19
19208;BME280;9737;59.466;18.036;2022-10-28T06:50:45;99477.16;;;11.89;81.82
19208;BME280;9737;59.466;18.036;2022-10-28T06:57:00;99508.41;;;11.97;82.49
19208;BME280;9737;59.466;18.036;2022-10-28T06:59:35;99546.81;;;12.04;82.31
19208;BME280;9737;59.466;18.036;2022-10-28T07:02:06;99537.81;;;12.05;82.16
19208;BME280;9737;59.466;18.036;2022-10-28T07:04:39;99517.09;;;11.99;82.32
19208;BME280;9737;59.466;18.036;2022-10-28T07:07:08;99506.47;;;11.79;82.25
19208;BME280;9737;59.466;18.036;2022-10-28T07:09:39;99510.81;;;11.90;82.41
19208;BME280;9737;59.466;18.036;2022-10-28T07:12:10;99570.91;;;12.12;82.32
19208;BME280;9737;59.466;18.036;2022-10-28T07:14:40;99596.19;;;12.18;82.21
19208;BME280;9737;59.466;18.036;2022-10-28T07:20:12;99571.78;;;11.93;82.39
19208;BME280;9737;59.466;18.036;2022-10-28T07:22:42;99605.44;;;12.04;82.59
19208;BME280;9737;59.466;18.036;2022-10-28T07:25:12;99677.78;;;12.38;82.55
19208;BME280;9737;59.466;18.036;2022-10-28T07:27:40;99626.63;;;12.15;82.44
19208;BME280;9737;59.466;18.036;2022-10-28T07:30:11;99648.91;;;12.24;82.52
19208;BME280;9737;59.466;18.036;2022-10-28T07:32:42;99581.47;;;11.94;82.37
19208;BME280;9737;59.466;18.036;2022-10-28T07:35:11;99642.19;;;12.20;82.54
19208;BME280;9737;59.466;18.036;2022-10-28T07:37:39;99613.84;;;12.09;82.37
19208;BME280;9737;59.466;18.036;2022-10-28T07:40:07;99666.72;;;12.33;82.49
19208;BME280;9737;59.466;18.036;2022-10-28T07:42:39;99669.38;;;12.33;82.55
19208;BME280;9737;59.466;18.036;2022-10-28T07:45:07;99620.59;;;12.03;82.38
19208;BME280;9737;59.466;18.036;2022-10-28T07:47:37;99640.34;;;12.20;82.69
19208;BME280;9737;59.466;18.036;2022-10-28T07:50:12;99681.72;;;12.34;82.50
19208;BME280;9737;59.466;18.036;2022-10-28T07:52:40;99656.50;;;12.19;82.65
19208;BME280;9737;59.466;18.036;2022-10-28T07:56:15;99656.19;;;12.12;82.58
19208;BME280;9737;59.466;18.036;2022-10-28T07:58:46;99707.25;;;12.36;82.47
19208;BME280;9737;59.466;18.036;2022-10-28T08:01:15;99707.41;;;12.35;82.66
19208;BME280;9737;59.466;18.036;2022-10-28T08:03:48;99769.03;;;12.51;82.48
19208;BME280;9737;59.466;18.036;2022-10-28T08:21:22;100315.88;;;13.84;82.99
19208;BME280;9737;59.466;18.036;2022-10-28T08:23:54;100346.59;;;13.90;82.66
19208;BME280;9737;59.466;18.036;2022-10-28T08:26:27;100345.75;;;13.89;83.00
19208;BME280;9737;59.466;18.036;2022-10-28T08:29:02;100341.19;;;13.80;82.84
19208;BME280;9737;59.466;18.036;2022-10-28T08:31:30;100391.09;;;14.01;82.99
19208;BME280;9737;59.466;18.036;2022-10-28T08:33:59;100380.09;;;13.94;82.65
19208;BME280;9737;59.466;18.036;2022-10-28T08:36:28;100454.88;;;14.15;82.70
19208;BME280;9737;59.466;18.036;2022-10-28T08:38:57;100487.16;;;14.23;82.74
19208;BME280;9737;59.466;18.036;2022-10-28T08:41:34;100471.66;;;14.17;83.05
19208;BME280;9737;59.466;18.036;2022-10-28T08:47:28;100615.63;;;14.53;82.94
19208;BME280;9737;59.466;18.036;2022-10-28T08:50:23;100602.78;;;14.47;82.88
19208;BME280;9737;59.466;18.036;2022-10-28T08:53:04;100567.16;;;14.26;83.12
19208;BME280;9737;59.466;18.036;2022-10-28T08:55:44;100589.53;;;14.46;83.06
19208;BME280;9737;59.466;18.036;2022-10-28T08:58:33;100576.78;;;14.38;82.93
19208;BME280;9737;59.466;18.036;2022-10-28T09:01:12;100663.72;;;14.44;82.83
19208;BME280;9737;59.466;18.036;2022-10-28T09:03:51;100895.41;;;15.10;82.87
19208;BME280;9737;59.466;18.036;2022-10-28T09:06:24;101198.78;;;15.68;82.78
19208;BME280;9737;59.466;18.036;2022-10-28T09:08:55;101412.88;;;16.18;82.73
19208;BME280;9737;59.466;18.036;2022-10-28T09:11:37;101459.09;;;16.32;82.73
19208;BME280;9737;59.466;18.036;2022-10-28T09:14:37;101343.00;;;16.08;82.84
19208;BME280;9737;59.466;18.036;2022-10-28T09:17:18;101422.38;;;16.33;82.77
19208;BME280;9737;59.466;18.036;2022-10-28T09:19:51;101314.22;;;16.10;82.90
19208;BME280;9737;59.466;18.036;2022-10-28T09:22:26;101430.31;;;16.34;82.69
19208;BME280;9737;59.466;18.036;2022-10-28T09:25:00;101612.16;;;16.77;82.69
19208;BME280;9737;59.466;18.036;2022-10-28T09:27:41;101822.22;;;17.27;82.71
19208;BME280;9737;59.466;18.036;2022-10-28T09:30:29;102072.47;;;17.83;82.60
19208;BME280;9737;59.466;18.036;2022-10-28T09:33:11;102120.19;;;17.92;82.78
19208;BME280;9737;59.466;18.036;2022-10-28T09:35:48;101885.81;;;17.39;82.67
19208;BME280;9737;59.466;18.036;2022-10-28T09:38:27;101539.84;;;16.63;82.61
19208;BME280;9737;59.466;18.036;2022-10-28T09:41:01;101415.03;;;16.35;82.58
19208;BME280;9737;59.466;18.036;2022-10-28T09:43:32;101299.63;;;16.03;82.48
19208;BME280;9737;59.466;18.036;2022-10-28T09:46:05;101036.66;;;15.40;82.61
19208;BME280;9737;59.466;18.036;2022-10-28T09:48:38;100995.66;;;15.29;82.41
19208;BME280;9737;59.466;18.036;2022-10-28T09:51:25;100936.63;;;15.19;82.45
19208;BME280;9737;59.466;18.036;2022-10-28T09:53:57;100819.69;;;14.87;82.27
19208;BME280;9737;59.466;18.036;2022-10-28T09:56:32;100811.34;;;14.81;82.20
19208;BME280;9737;59.466;18.036;2022-10-28T09:59:04;100780.97;;;14.71;82.12
19208;BME280;9737;59.466;18.036;2022-10-28T10:01:39;100756.72;;;14.72;82.28
19208;BME280;9737;59.466;18.036;2022-10-28T10:04:17;100758.97;;;14.67;82.05
19208;BME280;9737;59.466;18.036;2022-10-28T10:10:13;100838.75;;;14.94;81.94
19208;BME280;9737;59.466;18.036;2022-10-28T10:12:46;100925.53;;;15.24;81.98
19208;BME280;9737;59.466;18.036;2022-10-28T10:15:32;100936.97;;;15.26;81.98
19208;BME280;9737;59.466;18.036;2022-10-28T10:18:04;100821.00;;;14.93;82.11
19208;BME280;9737;59.466;18.036;2022-10-28T10:20:47;100798.00;;;14.91;82.05
19208;BME280;9737;59.466;18.036;2022-10-28T10:23:28;100684.50;;;14.51;82.14
19208;BME280;9737;59.466;18.036;2022-10-28T10:26:01;100671.56;;;14.56;81.78
19208;BME280;9737;59.466;18.036;2022-10-28T10:35:37;100727.34;;;14.82;81.71
19208;BME280;9737;59.466;18.036;2022-10-28T10:38:05;100744.97;;;14.84;81.51
19208;BME280;9737;59.466;18.036;2022-10-28T10:40:45;100766.97;;;14.88;81.46
19208;BME280;9737;59.466;18.036;2022-10-28T10:45:00;100786.03;;;14.95;81.79
19208;BME280;9737;59.466;18.036;2022-10-28T10:47:38;100765.03;;;14.90;81.62
19208;BME280;9737;59.466;18.036;2022-10-28T10:50:31;100748.56;;;14.74;81.89
19208;BME280;9737;59.466;18.036;2022-10-28T10:53:03;100756.34;;;14.77;81.80
19208;BME280;9737;59.466;18.036;2022-10-28T10:55:59;100705.38;;;14.57;81.52
19208;BME280;9737;59.466;18.036;2022-10-28T10:58:32;100737.28;;;14.70;81.58
19208;BME280;9737;59.466;18.036;2022-10-28T11:01:22;100783.19;;;14.86;81.54
19208;BME280;9737;59.466;18.036;2022-10-28T11:03:57;100737.84;;;14.74;81.32
19208;BME280;9737;59.466;18.036;2022-10-28T11:06:28;100684.22;;;14.54;81.34
19208;BME280;9737;59.466;18.036;2022-10-28T11:09:00;100652.09;;;14.54;81.66
19208;BME280;9737;59.466;18.036;2022-10-28T11:11:38;100643.09;;;14.55;81.51
19208;BME280;9737;59.466;18.036;2022-10-28T11:14:19;100597.16;;;14.50;81.38
19208;BME280;9737;59.466;18.036;2022-10-28T11:21:05;100613.66;;;14.55;81.72
19208;BME280;9737;59.466;18.036;2022-10-28T11:23:46;100629.00;;;14.53;81.20
19208;BME280;9737;59.466;18.036;2022-10-28T11:26:43;100633.50;;;14.53;81.59
19208;BME280;9737;59.466;18.036;2022-10-28T11:29:20;100628.31;;;14.40;81.40
19208;BME280;9737;59.466;18.036;2022-10-28T11:36:41;100637.19;;;14.62;81.64
19208;BME280;9737;59.466;18.036;2022-10-28T11:40:33;100579.41;;;14.49;81.23
19208;BME280;9737;59.466;18.036;2022-10-28T11:43:23;100567.50;;;14.42;81.53
19208;BME280;9737;59.466;18.036;2022-10-28T11:46:03;100545.22;;;14.32;81.35
19208;BME280;9737;59.466;18.036;2022-10-28T11:48:45;100561.91;;;14.45;81.47
19208;BME280;9737;59.466;18.036;2022-10-28T11:51:36;100490.56;;;14.25;81.30
19208;BME280;9737;59.466;18.036;2022-10-28T11:54:32;100518.44;;;14.32;81.24
19208;BME280;9737;59.466;18.036;2022-10-28T11:57:13;100510.56;;;14.31;81.53
19208;BME280;9737;59.466;18.036;2022-10-28T12:00:13;100547.19;;;14.40;81.30
19208;BME280;9737;59.466;18.036;2022-10-28T12:02:57;100574.56;;;14.43;81.42
19208;BME280;9737;59.466;18.036;2022-10-28T12:09:26;100550.81;;;14.29;81.40
19208;BME280;9737;59.466;18.036;2022-10-28T12:12:12;100572.13;;;14.40;81.30
19208;BME280;9737;59.466;18.036;2022-10-28T12:14:50;100582.22;;;14.48;81.31
19208;BME280;9737;59.466;18.036;2022-10-28T12:17:30;100568.31;;;14.33;81.37
19208;BME280;9737;59.466;18.036;2022-10-28T12:20:10;100615.47;;;14.55;81.47
19208;BME280;9737;59.466;18.036;2022-10-28T12:22:47;100604.22;;;14.51;81.72
19208;BME280;9737;59.466;18.036;2022-10-28T12:25:21;100579.91;;;14.43;81.59
19208;BME280;9737;59.466;18.036;2022-10-28T12:27:54;100593.50;;;14.51;81.31
19208;BME280;9737;59.466;18.036;2022-10-28T12:30:26;100559.84;;;14.28;81.41
19208;BME280;9737;59.466;18.036;2022-10-28T12:32:58;100557.72;;;14.32;81.15
19208;BME280;9737;59.466;18.036;2022-10-28T12:35:39;100587.94;;;14.43;81.63
19208;BME280;9737;59.466;18.036;2022-10-28T12:38:11;100579.41;;;14.49;81.57
19208;BME280;9737;59.466;18.036;2022-10-28T12:40:50;100527.59;;;14.30;81.65
19208;BME280;9737;59.466;18.036;2022-10-28T12:43:22;100595.19;;;14.52;81.48
19208;BME280;9737;59.466;18.036;2022-10-28T12:45:54;100581.63;;;14.44;81.51
19208;BME280;9737;59.466;18.036;2022-10-28T12:48:30;100573.34;;;14.47;81.78
19208;BME280;9737;59.466;18.036;2022-10-28T12:51:05;100530.56;;;14.36;81.21
19208;BME280;9737;59.466;18.036;2022-10-28T12:53:52;100514.78;;;14.33;81.50
19208;BME280;9737;59.466;18.036;2022-10-28T12:56:32;100448.66;;;14.05;81.30
19208;BME280;9737;59.466;18.036;2022-10-28T12:59:08;100370.16;;;13.75;81.48
19208;BME280;9737;59.466;18.036;2022-10-28T13:01:39;100395.16;;;14.05;81.64
19208;BME280;9737;59.466;18.036;2022-10-28T13:04:12;100398.13;;;14.02;81.51
19208;BME280;9737;59.466;18.036;2022-10-28T13:10:08;100446.63;;;14.18;81.42
19208;BME280;9737;59.466;18.036;2022-10-28T15:26:17;100215.09;;;13.56;82.35
19208;BME280;9737;59.466;18.036;2022-10-28T15:28:46;100208.63;;;13.58;82.22
19208;BME280;9737;59.466;18.036;2022-10-28T15:31:15;100185.13;;;13.52;82.17
19208;BME280;9737;59.466;18.036;2022-10-28T15:33:43;100194.84;;;13.53;82.15
19208;BME280;9737;59.466;18.036;2022-10-28T15:36:14;100195.69;;;13.54;82.15
19208;BME280;9737;59.466;18.036;2022-10-28T15:38:45;100191.31;;;13.53;82.00
19208;BME280;9737;59.466;18.036;2022-10-28T15:41:37;100199.91;;;13.56;82.15
19208;BME280;9737;59.466;18.036;2022-10-28T15:44:26;100178.25;;;13.50;82.10
19208;BME280;9737;59.466;18.036;2022-10-28T15:46:54;100167.69;;;13.48;82.25
19208;BME280;9737;59.466;18.036;2022-10-28T15:49:32;100167.84;;;13.47;82.29
19208;BME280;9737;59.466;18.036;2022-10-28T15:52:20;100194.00;;;13.53;82.11
19208;BME280;9737;59.466;18.036;2022-10-28T15:54:53;100210.44;;;13.58;82.51
19208;BME280;9737;59.466;18.036;2022-10-28T15:57:24;100230.59;;;13.62;82.27
19208;BME280;9737;59.466;18.036;2022-10-28T16:00:19;100200.03;;;13.55;82.44
19208;BME280;9737;59.466;18.036;2022-10-28T16:02:53;100157.16;;;13.47;82.25
19208;BME280;9737;59.466;18.036;2022-10-28T16:05:53;100166.16;;;13.46;82.29
19208;BME280;9737;59.466;18.036;2022-10-28T16:08:24;100201.03;;;13.54;82.71
19208;BME280;9737;59.466;18.036;2022-10-28T16:10:55;100201.72;;;13.56;82.62
19208;BME280;9737;59.466;18.036;2022-10-28T16:13:30;100186.97;;;13.52;82.25
19208;BME280;9737;59.466;18.036;2022-10-28T16:16:04;100171.22;;;13.49;82.47
19208;BME280;9737;59.466;18.036;2022-10-28T16:18:39;100186.53;;;13.47;82.32
19208;BME280;9737;59.466;18.036;2022-10-28T16:21:14;100169.53;;;13.48;82.65
19208;BME280;9737;59.466;18.036;2022-10-28T16:23:45;100176.56;;;13.49;82.66
19208;BME280;9737;59.466;18.036;2022-10-28T16:26:14;100223.72;;;13.59;82.54
19208;BME280;9737;59.466;18.036;2022-10-28T16:28:44;100183.59;;;13.50;82.55
19208;BME280;9737;59.466;18.036;2022-10-28T16:31:14;100152.22;;;13.42;82.75
19208;BME280;9737;59.466;18.036;2022-10-28T16:33:43;100164.47;;;13.45;82.68
19208;BME280;9737;59.466;18.036;2022-10-28T16:36:11;100187.50;;;13.46;82.74
19208;BME280;9737;59.466;18.036;2022-10-28T16:38:39;100187.25;;;13.49;82.49
19208;BME280;9737;59.466;18.036;2022-10-28T16:41:13;100163.47;;;13.46;82.73
19208;BME280;9737;59.466;18.036;2022-10-28T16:43:41;100211.44;;;13.57;82.45
19208;BME280;9737;59.466;18.036;2022-10-28T16:46:12;100237.63;;;13.63;82.53
19208;BME280;9737;59.466;18.036;2022-10-28T16:48:40;100209.75;;;13.56;82.75
19208;BME280;9737;59.466;18.036;2022-10-28T16:51:13;100180.91;;;13.50;82.59
19208;BME280;9737;59.466;18.036;2022-10-28T16:53:42;100234.25;;;13.61;82.68
19208;BME280;9737;59.466;18.036;2022-10-28T16:56:13;100189.22;;;13.47;82.63
19208;BME280;9737;59.466;18.036;2022-10-28T16:58:42;100232.56;;;13.60;82.81
19208;BME280;9737;59.466;18.036;2022-10-28T17:01:14;100195.13;;;13.50;82.67
19208;BME280;9737;59.466;18.036;2022-10-28T17:03:44;100237.78;;;13.61;82.73
19208;BME280;9737;59.466;18.036;2022-10-28T17:06:12;100224.66;;;13.58;82.85
19208;BME280;9737;59.466;18.036;2022-10-28T17:08:40;100225.53;;;13.59;82.91
19208;BME280;9737;59.466;18.036;2022-10-28T17:11:28;100191.47;;;13.51;82.88
19208;BME280;9737;59.466;18.036;2022-10-28T17:13:56;100187.09;;;13.50;82.61
19208;BME280;9737;59.466;18.036;2022-10-28T17:16:26;100181.19;;;13.47;83.03
19208;BME280;9737;59.466;18.036;2022-10-28T17:18:54;100207.22;;;13.54;82.79
19208;BME280;9737;59.466;18.036;2022-10-28T17:21:23;100236.94;;;13.61;82.69